Time;durP1;ratioP1;P1;durP2;ratioP2;P2;SDS_P1;SDS_P2;PMS_P1;PMS_P2;Temp;Humidity;BMP_temperature;BMP_pressure;BME280_temperature;BME280_humidity;BME280_pressure;Samples;Min_cycle;Max_cycle;Signal;HPM_P1;HPM_P2
2023/01/18 00:00:09;;;;;;;18.27;11.20;;;-3.50;99.90;;;;;;5037945;28;20047;-78
2023/01/18 00:02:36;;;;;;;18.20;9.13;;;-3.60;99.90;;;;;;5036957;28;20087;-78
2023/01/18 00:05:02;;;;;;;14.35;10.20;;;-3.60;99.90;;;;;;5055520;28;20048;-78
2023/01/18 00:07:30;;;;;;;14.35;9.50;;;-3.60;99.90;;;;;;5038246;28;20122;-78
2023/01/18 00:09:56;;;;;;;14.48;9.02;;;-3.60;99.90;;;;;;5036312;28;20116;-78
2023/01/18 00:12:23;;;;;;;20.27;11.93;;;-3.60;99.90;;;;;;5037732;28;20045;-79
2023/01/18 00:14:50;;;;;;;16.40;8.63;;;-3.50;99.90;;;;;;5038045;28;20047;-78
2023/01/18 00:17:16;;;;;;;13.45;9.75;;;-3.50;99.90;;;;;;5036847;28;20475;-78
2023/01/18 00:19:43;;;;;;;12.55;9.27;;;-3.50;99.90;;;;;;5054963;28;20374;-78
2023/01/18 00:22:10;;;;;;;13.05;9.10;;;-3.50;99.90;;;;;;5054203;28;20053;-78
2023/01/18 00:24:36;;;;;;;16.67;8.65;;;-3.50;99.90;;;;;;5037830;28;20055;-78
2023/01/18 00:27:03;;;;;;;14.73;8.57;;;-3.50;99.90;;;;;;5055031;28;20045;-78
2023/01/18 00:29:30;;;;;;;9.63;6.68;;;-3.40;99.90;;;;;;5053431;28;20072;-78
2023/01/18 00:31:56;;;;;;;14.48;7.10;;;-3.40;99.90;;;;;;5037549;28;20048;-78
2023/01/18 00:34:25;;;;;;;12.05;8.20;;;-3.40;99.90;;;;;;5037421;28;20433;-78
2023/01/18 00:36:51;;;;;;;15.93;9.02;;;-3.40;99.90;;;;;;5036568;28;20033;-77
2023/01/18 00:39:18;;;;;;;11.95;7.38;;;-3.40;99.90;;;;;;5054407;28;20080;-78
2023/01/18 00:44:30;;;;;;;12.98;8.23;;;-3.40;99.90;;;;;;5036335;28;20057;-78
2023/01/18 00:46:57;;;;;;;10.27;7.65;;;-3.50;99.90;;;;;;5020910;28;20056;-79
2023/01/18 00:49:24;;;;;;;12.73;7.88;;;-3.40;99.90;;;;;;5019184;28;20049;-78
2023/01/18 00:51:51;;;;;;;11.45;8.23;;;-3.40;99.90;;;;;;5037240;28;20056;-77
2023/01/18 00:54:17;;;;;;;11.02;6.53;;;-3.40;99.90;;;;;;5037114;28;20041;-78
2023/01/18 00:56:44;;;;;;;12.98;6.63;;;-3.40;99.90;;;;;;5036325;28;20052;-78
2023/01/18 00:59:11;;;;;;;8.20;6.57;;;-3.40;99.90;;;;;;5054165;28;20041;-78
2023/01/18 01:01:38;;;;;;;8.63;6.03;;;-3.40;99.90;;;;;;5054621;28;20064;-78
2023/01/18 01:06:50;;;;;;;9.77;6.70;;;-3.40;99.90;;;;;;5036903;28;20057;-78
2023/01/18 01:09:17;;;;;;;10.63;7.30;;;-3.40;99.90;;;;;;5032707;28;20470;-78
2023/01/18 01:28:16;;;;;;;9.90;5.95;;;-3.30;99.90;;;;;;5034502;28;20080;-78
2023/01/18 01:30:43;;;;;;;10.80;6.32;;;-3.20;99.90;;;;;;5015557;28;20038;-78
2023/01/18 01:33:10;;;;;;;8.35;5.50;;;-3.20;99.90;;;;;;5034347;28;20427;-78
2023/01/18 01:35:37;;;;;;;9.07;5.93;;;-3.20;99.90;;;;;;5033204;28;20038;-78
2023/01/18 01:38:03;;;;;;;8.00;5.40;;;-3.30;99.90;;;;;;5034319;28;20042;-78
2023/01/18 01:40:30;;;;;;;8.77;5.57;;;-3.30;99.90;;;;;;5016403;28;20049;-78
2023/01/18 01:42:56;;;;;;;10.13;5.80;;;-3.40;99.90;;;;;;5033214;28;20073;-78
2023/01/18 01:45:24;;;;;;;10.07;5.55;;;-3.30;99.90;;;;;;5034313;28;20068;-78
2023/01/18 01:47:50;;;;;;;8.80;5.18;;;-3.30;99.90;;;;;;5017104;28;20545;-78
2023/01/18 01:50:17;;;;;;;8.65;5.05;;;-3.30;99.90;;;;;;5014913;28;20057;-78
2023/01/18 01:52:44;;;;;;;10.82;5.45;;;-3.30;99.90;;;;;;5034238;28;20069;-78
2023/01/18 01:55:11;;;;;;;9.23;5.57;;;-3.30;99.90;;;;;;5033311;28;20052;-78
2023/01/18 01:57:37;;;;;;;10.07;5.72;;;-3.40;99.90;;;;;;5020549;28;20080;-78
2023/01/18 02:00:04;;;;;;;7.53;5.00;;;-3.40;99.90;;;;;;5020333;28;20380;-78
2023/01/18 02:02:37;;;;;;;8.77;5.18;;;-3.40;99.90;;;;;;5036841;28;20064;-78
2023/01/18 02:05:04;;;;;;;7.97;5.05;;;-3.50;99.90;;;;;;5020638;28;20480;-78
2023/01/18 02:07:30;;;;;;;9.25;5.72;;;-3.40;99.90;;;;;;5020630;28;20049;-78
2023/01/18 02:09:57;;;;;;;10.73;6.40;;;-3.40;99.90;;;;;;5019008;28;20356;-78
2023/01/18 02:12:23;;;;;;;10.00;5.55;;;-3.40;99.90;;;;;;5021330;28;20095;-79
2023/01/18 02:14:50;;;;;;;7.07;4.80;;;-3.40;99.90;;;;;;5020323;28;20045;-78
2023/01/18 02:17:17;;;;;;;8.98;5.22;;;-3.40;99.90;;;;;;5019233;28;20349;-78
2023/01/18 02:19:43;;;;;;;5.47;4.03;;;-3.30;99.90;;;;;;5037162;28;20049;-78
2023/01/18 02:22:10;;;;;;;8.73;4.75;;;-3.30;99.90;;;;;;5036583;28;20475;-78
2023/01/18 02:24:37;;;;;;;8.02;4.40;;;-3.30;99.90;;;;;;5020484;28;20052;-78
2023/01/18 02:27:04;;;;;;;8.07;4.32;;;-3.30;99.90;;;;;;5037659;28;20360;-79
2023/01/18 02:29:31;;;;;;;8.85;6.25;;;-3.30;99.90;;;;;;5018456;28;20045;-78
2023/01/18 02:31:57;;;;;;;8.00;4.55;;;-3.30;99.90;;;;;;5019876;28;20037;-78
2023/01/18 02:34:24;;;;;;;5.45;4.68;;;-3.40;99.90;;;;;;5019869;28;20080;-78
2023/01/18 02:36:50;;;;;;;8.98;5.18;;;-3.40;99.90;;;;;;5036337;28;20049;-78
2023/01/18 02:39:22;;;;;;;7.93;5.45;;;-3.40;99.90;;;;;;5036923;28;20041;-78
2023/01/18 02:47:20;;;;;;;7.22;4.38;;;-3.40;99.90;;;;;;5036914;28;20068;-77
2023/01/18 02:49:46;;;;;;;6.60;5.25;;;-3.40;99.90;;;;;;5035122;28;20060;-78
2023/01/18 02:52:13;;;;;;;6.43;4.75;;;-3.40;99.90;;;;;;5036845;28;20049;-78
2023/01/18 02:54:39;;;;;;;10.75;5.72;;;-3.40;99.90;;;;;;5036928;28;20484;-78
2023/01/18 02:57:06;;;;;;;7.60;4.68;;;-3.40;99.90;;;;;;5035723;28;20056;-78
2023/01/18 02:59:32;;;;;;;10.40;5.43;;;-3.40;99.90;;;;;;5018997;28;20072;-78
2023/01/18 03:01:59;;;;;;;8.50;5.95;;;-3.40;99.90;;;;;;5035750;28;20342;-78
2023/01/18 03:04:26;;;;;;;9.32;5.10;;;-3.40;99.90;;;;;;5019485;28;20115;-78
2023/01/18 03:06:56;;;;;;;7.72;5.15;;;-3.30;99.90;;;;;;5035935;28;20086;-78
2023/01/18 03:09:26;;;;;;;6.25;4.03;;;-3.20;99.90;;;;;;5034961;28;20033;-78
2023/01/18 03:11:53;;;;;;;8.15;4.15;;;-3.20;99.90;;;;;;5036638;28;20064;-78
2023/01/18 03:14:19;;;;;;;6.93;4.32;;;-3.20;99.90;;;;;;5036643;28;20468;-78
2023/01/18 03:16:56;;;;;;;9.63;5.43;;;-3.30;99.90;;;;;;5035536;28;20053;-78
2023/01/18 03:22:09;;;;;;;8.80;4.95;;;-3.40;99.90;;;;;;5035270;28;20056;-78
2023/01/18 03:24:40;;;;;;;7.57;5.32;;;-3.40;99.90;;;;;;5018997;28;20041;-78
2023/01/18 03:35:26;;;;;;;5.72;3.83;;;-3.30;99.90;;;;;;5035316;28;20060;-79
2023/01/18 03:37:53;;;;;;;9.45;4.50;;;-3.30;99.90;;;;;;5036160;28;20056;-78
2023/01/18 03:40:19;;;;;;;8.48;4.93;;;-3.20;99.90;;;;;;5035747;28;20449;-78
2023/01/18 03:42:47;;;;;;;6.45;4.00;;;-3.20;99.90;;;;;;5034880;28;20033;-79
2023/01/18 03:45:13;;;;;;;6.60;4.30;;;-3.30;99.90;;;;;;5036105;28;20132;-78
2023/01/18 03:47:40;;;;;;;7.80;4.55;;;-3.40;99.90;;;;;;5018763;28;20107;-77
2023/01/18 03:50:07;;;;;;;6.88;4.63;;;-3.40;99.90;;;;;;5034349;28;20049;-78
2023/01/18 03:52:36;;;;;;;5.60;3.70;;;-3.40;99.90;;;;;;5035948;28;20045;-78
2023/01/18 03:55:03;;;;;;;5.80;4.35;;;-3.40;99.90;;;;;;5035831;28;20120;-78
2023/01/18 03:57:29;;;;;;;5.78;4.57;;;-3.40;99.90;;;;;;5035446;28;20041;-78
2023/01/18 03:59:56;;;;;;;7.13;4.32;;;-3.40;99.90;;;;;;5017885;28;20399;-77
2023/01/18 04:02:23;;;;;;;7.82;4.45;;;-3.40;99.90;;;;;;5017331;28;20533;-79
2023/01/18 04:04:56;;;;;;;7.85;4.60;;;-3.40;99.90;;;;;;5018264;28;20060;-78
2023/01/18 04:07:23;;;;;;;4.60;3.88;;;-3.30;99.90;;;;;;5035696;28;20133;-78
2023/01/18 04:09:49;;;;;;;12.85;5.18;;;-3.30;99.90;;;;;;5033859;28;20033;-78
2023/01/18 04:12:16;;;;;;;6.47;4.65;;;-3.30;99.90;;;;;;5035380;28;20064;-78
2023/01/18 04:14:43;;;;;;;8.40;4.57;;;-3.30;99.90;;;;;;5035454;28;20041;-78
2023/01/18 04:17:09;;;;;;;5.43;3.70;;;-3.30;99.90;;;;;;5034291;28;20042;-78
2023/01/18 04:19:36;;;;;;;7.57;4.78;;;-3.20;99.90;;;;;;5033944;28;20041;-78
2023/01/18 04:22:02;;;;;;;7.40;4.22;;;-3.20;99.90;;;;;;5034310;28;20041;-78
2023/01/18 04:24:29;;;;;;;6.55;4.15;;;-3.20;99.90;;;;;;5034443;28;20042;-78
2023/01/18 04:26:56;;;;;;;5.93;3.53;;;-3.10;99.90;;;;;;5035275;28;20041;-79
2023/01/18 04:29:22;;;;;;;7.75;4.22;;;-3.10;99.90;;;;;;5016309;28;20048;-78
2023/01/18 04:31:49;;;;;;;5.60;4.20;;;-3.10;99.90;;;;;;5017780;28;20376;-78
2023/01/18 04:34:16;;;;;;;6.43;3.90;;;-3.00;99.90;;;;;;5035058;28;20466;-78
2023/01/18 04:36:42;;;;;;;6.63;4.38;;;-3.00;99.90;;;;;;5034041;28;20064;-79
2023/01/18 04:39:09;;;;;;;6.20;4.97;;;-2.90;99.90;;;;;;5034542;28;20034;-80
2023/01/18 04:41:35;;;;;;;8.25;4.60;;;-2.90;99.90;;;;;;5017640;28;20053;-79
2023/01/18 04:44:02;;;;;;;7.78;4.38;;;-2.90;99.90;;;;;;5016515;28;20045;-78
2023/01/18 04:46:29;;;;;;;7.80;5.00;;;-2.80;99.90;;;;;;5017573;28;20049;-78
2023/01/18 04:48:55;;;;;;;6.18;4.13;;;-2.80;99.90;;;;;;5015714;28;20472;-78
2023/01/18 04:51:26;;;;;;;7.25;4.18;;;-2.80;99.90;;;;;;5033821;28;20061;-78
2023/01/18 04:53:52;;;;;;;7.00;3.83;;;-2.70;99.90;;;;;;5034684;28;20045;-78
2023/01/18 04:56:19;;;;;;;7.18;3.88;;;-2.80;99.90;;;;;;5016354;28;20412;-78
2023/01/18 04:58:46;;;;;;;7.47;4.28;;;-2.80;99.90;;;;;;5034558;28;20033;-78
2023/01/18 05:01:13;;;;;;;7.90;3.88;;;-2.80;99.90;;;;;;5034677;28;20490;-78
2023/01/18 05:03:40;;;;;;;5.25;4.18;;;-2.80;99.90;;;;;;5032871;28;20211;-78
2023/01/18 05:06:06;;;;;;;5.07;4.18;;;-2.80;99.90;;;;;;5017064;28;20053;-78
2023/01/18 05:08:33;;;;;;;5.18;3.78;;;-2.80;99.90;;;;;;5032312;28;20049;-78
2023/01/18 05:11:00;;;;;;;7.50;3.70;;;-2.80;99.90;;;;;;5033627;28;20041;-78
2023/01/18 05:13:26;;;;;;;9.52;4.25;;;-2.70;99.90;;;;;;5047284;28;20142;-78
2023/01/18 05:15:53;;;;;;;5.43;3.95;;;-2.70;99.90;;;;;;5053569;28;20102;-78
2023/01/18 05:18:19;;;;;;;5.60;3.60;;;-2.60;99.90;;;;;;5054413;28;20095;-79
2023/01/18 05:20:46;;;;;;;7.20;4.13;;;-2.50;99.90;;;;;;5054479;28;20055;-78
2023/01/18 05:23:13;;;;;;;5.22;3.97;;;-2.40;99.90;;;;;;5053266;28;20132;-78
2023/01/18 05:25:39;;;;;;;8.32;3.67;;;-2.40;99.90;;;;;;5054503;28;20051;-78
2023/01/18 05:28:06;;;;;;;9.02;4.00;;;-2.40;99.90;;;;;;5054423;28;20040;-78
2023/01/18 05:30:33;;;;;;;6.07;4.30;;;-2.40;99.90;;;;;;5053647;28;20037;-78
2023/01/18 05:32:59;;;;;;;4.18;3.08;;;-2.40;99.90;;;;;;5040873;28;20056;-79
2023/01/18 05:35:26;;;;;;;7.25;3.42;;;-2.40;99.90;;;;;;5039750;28;20123;-78
2023/01/18 05:37:53;;;;;;;4.63;3.33;;;-2.40;99.90;;;;;;5040804;28;20049;-78
2023/01/18 05:40:20;;;;;;;13.48;4.75;;;-2.40;99.90;;;;;;5058030;28;20056;-78
2023/01/18 05:42:46;;;;;;;5.72;3.10;;;-2.50;99.90;;;;;;5039842;28;20049;-78
2023/01/18 05:45:13;;;;;;;7.03;4.25;;;-2.40;99.90;;;;;;5058197;28;20037;-78
2023/01/18 05:47:40;;;;;;;5.22;3.95;;;-2.40;99.90;;;;;;5040727;28;20045;-78
2023/01/18 05:50:06;;;;;;;5.70;3.97;;;-2.40;99.90;;;;;;5056415;28;20049;-78
2023/01/18 05:52:33;;;;;;;7.93;4.07;;;-2.30;99.90;;;;;;5058147;28;20037;-79
2023/01/18 05:54:59;;;;;;;5.03;3.30;;;-2.30;99.90;;;;;;5040701;28;20029;-79
2023/01/18 05:57:26;;;;;;;4.57;3.20;;;-2.40;99.90;;;;;;5056938;28;20387;-79
2023/01/18 05:59:53;;;;;;;5.18;2.83;;;-2.30;99.90;;;;;;5057629;28;20037;-78
2023/01/18 06:02:19;;;;;;;3.33;2.90;;;-2.30;99.90;;;;;;5022858;28;20132;-78
2023/01/18 06:04:46;;;;;;;5.20;3.15;;;-2.40;99.90;;;;;;5057975;28;20037;-78
2023/01/18 06:07:13;;;;;;;4.97;3.25;;;-2.40;99.90;;;;;;5057827;28;20483;-78
2023/01/18 06:09:40;;;;;;;5.95;3.45;;;-2.50;99.90;;;;;;5039171;28;20045;-78
2023/01/18 06:12:09;;;;;;;5.18;2.97;;;-2.50;99.90;;;;;;5039998;28;20044;-78
2023/01/18 06:14:35;;;;;;;5.13;2.72;;;-2.60;99.90;;;;;;5040193;28;20053;-79
2023/01/18 06:17:02;;;;;;;5.05;3.00;;;-2.60;99.90;;;;;;5038934;28;20048;-78
2023/01/18 06:19:28;;;;;;;6.22;3.30;;;-2.50;99.90;;;;;;5057283;28;20040;-78
2023/01/18 06:21:55;;;;;;;7.50;3.53;;;-2.40;99.90;;;;;;5056583;28;20044;-78
2023/01/18 06:24:22;;;;;;;4.80;3.15;;;-2.30;99.90;;;;;;5057502;28;20040;-78
2023/01/18 06:26:49;;;;;;;6.80;3.15;;;-2.20;99.90;;;;;;5040146;28;20048;-78
2023/01/18 06:29:15;;;;;;;6.13;2.67;;;-1.90;99.90;;;;;;5056012;28;20063;-78
2023/01/18 06:31:42;;;;;;;5.10;3.13;;;-1.70;99.90;;;;;;5039805;28;20063;-78
2023/01/18 06:34:09;;;;;;;12.02;3.40;;;-1.70;99.90;;;;;;5039772;28;20369;-78
2023/01/18 06:36:35;;;;;;;7.53;3.72;;;-1.70;99.90;;;;;;5056354;28;20043;-78
2023/01/18 06:39:02;;;;;;;5.28;3.30;;;-1.70;99.90;;;;;;5056782;28;20049;-79
2023/01/18 06:41:29;;;;;;;8.75;4.05;;;-1.60;99.90;;;;;;5039849;28;20052;-78
2023/01/18 06:43:55;;;;;;;7.22;3.08;;;-1.60;99.90;;;;;;5022111;28;20079;-78
2023/01/18 06:46:22;;;;;;;5.53;3.40;;;-1.50;99.90;;;;;;5057138;28;20445;-79
2023/01/18 06:48:49;;;;;;;4.82;2.88;;;-1.60;99.90;;;;;;5027319;28;20053;-79
2023/01/18 06:51:15;;;;;;;6.65;3.13;;;-1.50;99.90;;;;;;5017189;28;20088;-78
2023/01/18 06:53:42;;;;;;;6.60;3.30;;;-1.30;99.90;;;;;;5016403;28;20046;-78
2023/01/18 06:56:09;;;;;;;6.35;3.17;;;-1.20;99.90;;;;;;5016217;28;20076;-78
2023/01/18 06:58:35;;;;;;;4.15;3.08;;;-1.20;99.90;;;;;;5015659;28;20041;-78
2023/01/18 07:01:02;;;;;;;4.40;3.08;;;-1.20;99.90;;;;;;5017124;28;20053;-78
2023/01/18 07:03:29;;;;;;;7.70;4.15;;;-1.10;99.90;;;;;;5015018;28;20052;-79
2023/01/18 07:05:55;;;;;;;6.47;3.42;;;-1.10;99.90;;;;;;5017001;28;20431;-78
2023/01/18 07:08:22;;;;;;;6.45;3.10;;;-1.10;99.90;;;;;;5015609;28;20053;-78
2023/01/18 07:10:49;;;;;;;6.78;3.70;;;-0.90;99.90;;;;;;5016125;28;20121;-78
2023/01/18 07:13:15;;;;;;;6.30;3.22;;;-0.80;99.90;;;;;;5015715;28;20053;-78
2023/01/18 07:15:42;;;;;;;4.68;2.92;;;-0.70;99.90;;;;;;5016011;28;20041;-78
2023/01/18 07:18:09;;;;;;;5.22;2.45;;;-0.70;99.90;;;;;;5016796;28;20445;-80
2023/01/18 07:20:35;;;;;;;9.40;3.30;;;-0.80;99.90;;;;;;5016180;28;20124;-78
2023/01/18 07:23:03;;;;;;;7.00;3.40;;;-0.80;99.90;;;;;;5015591;28;20073;-79
2023/01/18 07:25:30;;;;;;;6.50;2.85;;;-0.70;99.90;;;;;;5016834;28;20041;-79
2023/01/18 07:27:57;;;;;;;4.35;3.28;;;-0.70;99.90;;;;;;5016488;28;20461;-79
2023/01/18 07:30:23;;;;;;;7.20;3.38;;;-0.70;99.90;;;;;;5015028;28;20046;-78
2023/01/18 07:32:50;;;;;;;7.57;3.15;;;-0.70;99.90;;;;;;4999403;28;20428;-78
2023/01/18 07:35:17;;;;;;;8.27;4.47;;;-0.70;99.90;;;;;;5015432;28;20125;-79
2023/01/18 07:37:43;;;;;;;3.80;2.72;;;-0.60;99.90;;;;;;5015515;28;20476;-78
2023/01/18 07:40:10;;;;;;;6.22;2.85;;;-0.60;99.90;;;;;;5015820;28;20527;-78
2023/01/18 07:42:37;;;;;;;7.82;3.15;;;-0.70;99.90;;;;;;5007874;28;20507;-79
2023/01/18 07:45:07;;;;;;;6.07;3.38;;;-0.90;99.90;;;;;;5003986;28;20035;-78
2023/01/18 07:47:34;;;;;;;;;;;-0.90;99.90;;;;;;4997015;28;20384;-79
2023/01/18 07:50:01;;;;;;;5.68;3.35;;;-0.70;99.90;;;;;;5029466;28;20015;-78
2023/01/18 07:52:27;;;;;;;5.57;3.17;;;-0.60;99.90;;;;;;5026978;28;20041;-79
2023/01/18 07:54:54;;;;;;;4.72;3.63;;;-0.60;99.90;;;;;;5039596;28;20041;-77
2023/01/18 07:57:21;;;;;;;9.57;3.63;;;-0.60;99.90;;;;;;5017341;28;20049;-79
2023/01/18 07:59:47;;;;;;;9.65;4.10;;;-0.60;99.90;;;;;;5036120;28;20037;-77
2023/01/18 08:02:14;;;;;;;5.43;3.50;;;-0.60;99.90;;;;;;5035411;28;20471;-77
2023/01/18 08:04:42;;;;;;;5.05;3.38;;;-0.60;99.90;;;;;;5035886;28;20049;-78
2023/01/18 08:07:08;;;;;;;5.60;2.65;;;-0.60;99.90;;;;;;5035740;28;20045;-77
2023/01/18 08:09:35;;;;;;;6.43;3.20;;;-0.70;99.90;;;;;;5024862;28;20049;-78
2023/01/18 08:12:01;;;;;;;7.43;4.32;;;-0.70;99.90;;;;;;5051345;28;20044;-77
2023/01/18 08:14:28;;;;;;;8.57;3.65;;;-0.90;99.90;;;;;;5035829;28;20041;-78
2023/01/18 08:16:55;;;;;;;5.40;3.30;;;-1.00;99.90;;;;;;5031215;28;20341;-77
2023/01/18 08:19:21;;;;;;;5.65;3.03;;;-0.90;99.90;;;;;;5054968;28;20048;-78
2023/01/18 08:21:48;;;;;;;4.85;3.13;;;-1.00;99.90;;;;;;5035717;28;20044;-78
2023/01/18 08:24:15;;;;;;;7.03;3.28;;;-1.00;99.90;;;;;;5038154;28;20044;-79
2023/01/18 08:26:42;;;;;;;7.35;4.00;;;-1.10;99.90;;;;;;5055409;28;20376;-77
2023/01/18 08:29:08;;;;;;;7.30;3.78;;;-1.20;99.90;;;;;;5054121;28;20045;-77
2023/01/18 08:31:35;;;;;;;4.88;3.70;;;-1.10;99.90;;;;;;5043660;28;20117;-77
2023/01/18 08:34:02;;;;;;;6.50;3.53;;;-1.10;99.90;;;;;;5035530;28;20403;-77
2023/01/18 08:36:30;;;;;;;8.20;3.95;;;-1.20;99.90;;;;;;5017048;28;20045;-77
2023/01/18 08:38:57;;;;;;;5.95;3.53;;;-1.30;99.90;;;;;;5035030;28;20044;-77
2023/01/18 08:41:27;;;;;;;9.43;4.32;;;-1.20;99.90;;;;;;5034885;28;20041;-77
2023/01/18 08:43:54;;;;;;;4.57;3.30;;;-1.30;99.90;;;;;;5034275;28;20452;-77
2023/01/18 08:46:20;;;;;;;6.32;3.38;;;-1.20;99.90;;;;;;5052170;28;20439;-78
2023/01/18 08:48:47;;;;;;;6.45;3.65;;;-1.20;99.90;;;;;;5036045;28;20057;-77
2023/01/18 08:51:16;;;;;;;8.57;4.22;;;-1.20;99.90;;;;;;5021213;28;20140;-78
2023/01/18 08:53:43;;;;;;;9.55;4.60;;;-1.20;99.90;;;;;;5054951;28;20041;-77
2023/01/18 08:56:11;;;;;;;8.23;4.68;;;-1.20;99.90;;;;;;5053987;28;20056;-78
2023/01/18 08:58:38;;;;;;;7.50;3.83;;;-1.20;99.90;;;;;;5053989;28;20076;-77
2023/01/18 09:01:04;;;;;;;6.57;3.72;;;-1.20;99.90;;;;;;5054623;28;20103;-78
2023/01/18 09:03:31;;;;;;;6.13;4.72;;;-1.20;99.90;;;;;;5053568;28;20056;-77
2023/01/18 09:05:59;;;;;;;10.77;4.70;;;-1.20;99.90;;;;;;5036013;28;20467;-79
2023/01/18 09:08:26;;;;;;;7.28;4.22;;;-1.10;99.90;;;;;;5035322;28;20135;-78
2023/01/18 09:10:52;;;;;;;7.53;3.70;;;-1.20;99.90;;;;;;5054289;28;20056;-77
2023/01/18 09:13:19;;;;;;;6.53;4.03;;;-1.00;99.90;;;;;;5042460;28;20045;-78
2023/01/18 09:15:46;;;;;;;6.85;4.75;;;-0.90;99.90;;;;;;5033385;28;20041;-78
2023/01/18 09:18:12;;;;;;;7.72;3.70;;;-0.90;99.90;;;;;;5033836;28;20034;-78
2023/01/18 09:20:39;;;;;;;6.57;3.95;;;-0.80;99.90;;;;;;5034456;28;20103;-78
2023/01/18 09:23:07;;;;;;;10.43;3.90;;;-0.60;99.90;;;;;;5022516;28;20041;-78
2023/01/18 09:25:35;;;;;;;6.75;3.75;;;-0.40;99.90;;;;;;5044840;28;20045;-79
2023/01/18 09:28:01;;;;;;;10.38;4.32;;;-0.20;99.90;;;;;;4983743;28;20495;-80
2023/01/18 09:30:28;;;;;;;8.52;3.97;;;-0.10;99.90;;;;;;5014791;28;20044;-80
2023/01/18 09:32:55;;;;;;;5.57;3.78;;;0.10;99.90;;;;;;5033715;28;20041;-79
2023/01/18 09:35:22;;;;;;;4.63;3.42;;;0.30;99.90;;;;;;5012865;28;20059;-86
2023/01/18 09:37:49;;;;;;;7.78;3.10;;;0.40;99.90;;;;;;4996722;28;20050;-81
2023/01/18 09:40:15;;;;;;;4.95;3.28;;;0.50;99.90;;;;;;5006208;28;20041;-82
2023/01/18 09:42:43;;;;;;;7.57;3.88;;;0.50;99.90;;;;;;5015282;28;20148;-83
2023/01/18 09:45:10;;;;;;;5.75;3.17;;;0.60;99.90;;;;;;5033135;28;20041;-82
2023/01/18 09:47:38;;;;;;;5.30;3.78;;;0.60;99.90;;;;;;5016122;28;20045;-80
2023/01/18 09:50:04;;;;;;;5.72;3.38;;;0.70;99.90;;;;;;5015109;28;20049;-83
2023/01/18 09:52:31;;;;;;;5.40;3.35;;;0.70;99.90;;;;;;5015397;28;20456;-80
2023/01/18 09:54:57;;;;;;;5.75;3.28;;;0.80;99.90;;;;;;5033399;28;20456;-81
2023/01/18 09:57:24;;;;;;;8.25;3.78;;;1.00;99.90;;;;;;5015891;28;20038;-82
2023/01/18 09:59:51;;;;;;;8.52;4.25;;;1.10;99.90;;;;;;5016306;28;20064;-80
2023/01/18 10:02:17;;;;;;;6.18;3.72;;;1.20;99.90;;;;;;5015977;28;20037;-81
2023/01/18 10:04:44;;;;;;;7.43;3.05;;;1.40;99.90;;;;;;5015535;28;20161;-79
2023/01/18 10:07:11;;;;;;;7.88;3.20;;;1.50;99.90;;;;;;5015174;28;20128;-79
2023/01/18 10:09:38;;;;;;;5.65;3.67;;;1.70;99.90;;;;;;5032673;28;20076;-80
2023/01/18 10:12:04;;;;;;;6.68;4.28;;;1.90;99.90;;;;;;5015190;28;20403;-80
2023/01/18 10:14:31;;;;;;;6.57;3.22;;;2.10;99.90;;;;;;5013543;28;20049;-79
2023/01/18 10:16:58;;;;;;;6.45;3.15;;;2.30;99.90;;;;;;4999777;28;20041;-80
2023/01/18 10:19:24;;;;;;;7.28;3.78;;;2.50;99.90;;;;;;5027460;28;20411;-79
2023/01/18 10:21:51;;;;;;;3.95;2.55;;;2.60;99.90;;;;;;5024707;28;20425;-79
2023/01/18 10:24:18;;;;;;;4.63;2.70;;;2.80;99.90;;;;;;5011674;28;20053;-81
2023/01/18 10:26:45;;;;;;;4.72;3.00;;;2.90;99.90;;;;;;5011636;28;20117;-79
2023/01/18 10:29:14;;;;;;;3.92;2.70;;;3.10;99.90;;;;;;5018276;28;20125;-78
2023/01/18 10:31:41;;;;;;;5.22;2.70;;;3.20;99.90;;;;;;5016407;28;20046;-80
2023/01/18 10:34:09;;;;;;;6.05;3.28;;;3.40;99.90;;;;;;5017772;28;20095;-79
2023/01/18 10:36:37;;;;;;;4.55;2.50;;;3.50;99.90;;;;;;4998493;28;20057;-79
2023/01/18 10:39:03;;;;;;;6.07;3.13;;;3.50;99.90;;;;;;5002254;28;20041;-82
2023/01/18 10:41:30;;;;;;;4.18;2.90;;;3.60;99.90;;;;;;5026494;28;20479;-79
2023/01/18 10:43:57;;;;;;;6.03;3.00;;;3.70;99.90;;;;;;5025311;28;20038;-77
2023/01/18 10:46:25;;;;;;;8.63;3.63;;;3.80;99.90;;;;;;4997297;28;20395;-79
2023/01/18 10:48:51;;;;;;;4.68;2.63;;;3.90;99.90;;;;;;5006701;28;20050;-79
2023/01/18 10:51:18;;;;;;;5.07;2.97;;;4.00;99.90;;;;;;4996837;28;20347;-80
2023/01/18 10:53:45;;;;;;;6.88;3.42;;;3.90;99.90;;;;;;4995686;28;20039;-85
2023/01/18 10:56:12;;;;;;;5.70;3.53;;;4.00;99.90;;;;;;4987075;28;20365;-80
2023/01/18 10:58:39;;;;;;;7.18;3.83;;;4.10;99.90;;;;;;4987378;28;20046;-78
2023/01/18 11:01:05;;;;;;;7.15;3.45;;;4.30;99.90;;;;;;4984551;28;20046;-77
2023/01/18 11:03:32;;;;;;;6.07;3.60;;;4.20;99.90;;;;;;4995250;28;20054;-78
2023/01/18 11:05:59;;;;;;;4.65;3.60;;;4.20;99.90;;;;;;4986033;28;20058;-80
2023/01/18 11:08:26;;;;;;;5.80;3.30;;;4.30;99.90;;;;;;4976867;28;20049;-78
2023/01/18 11:10:53;;;;;;;6.50;4.07;;;4.60;99.90;;;;;;4987937;28;20048;-80
2023/01/18 11:13:20;;;;;;;7.32;3.80;;;4.70;99.90;;;;;;4994501;28;20451;-77
2023/01/18 11:15:46;;;;;;;8.07;4.13;;;4.70;99.90;;;;;;4980846;28;20121;-79
2023/01/18 11:18:13;;;;;;;10.90;3.50;;;4.70;99.90;;;;;;4996840;28;20038;-76
2023/01/18 11:20:44;;;;;;;5.50;3.55;;;4.60;99.90;;;;;;4994766;28;20046;-78
2023/01/18 11:23:13;;;;;;;7.65;3.75;;;4.80;99.90;;;;;;4995383;28;20489;-75
2023/01/18 11:25:39;;;;;;;7.93;4.25;;;4.60;99.90;;;;;;4981715;28;20038;-76
2023/01/18 11:28:06;;;;;;;8.32;4.63;;;4.70;99.90;;;;;;4994554;28;20066;-77
2023/01/18 11:30:33;;;;;;;5.05;3.80;;;4.80;99.90;;;;;;4994361;28;20050;-78
2023/01/18 11:32:59;;;;;;;5.72;4.13;;;5.00;99.90;;;;;;4991371;28;20380;-78
2023/01/18 11:35:27;;;;;;;6.68;4.03;;;5.10;99.90;;;;;;4978397;28;20042;-79
2023/01/18 11:37:53;;;;;;;6.28;3.75;;;5.30;99.90;;;;;;4994898;28;20057;-80
2023/01/18 11:40:21;;;;;;;6.15;4.72;;;5.40;99.90;;;;;;4995463;28;20489;-78
2023/01/18 11:42:48;;;;;;;7.53;3.67;;;5.10;99.90;;;;;;4983761;28;20461;-79
2023/01/18 11:45:15;;;;;;;7.18;3.50;;;5.10;99.90;;;;;;4996364;28;20050;-83
2023/01/18 11:47:41;;;;;;;7.40;4.70;;;5.40;99.90;;;;;;4996305;28;20053;-78
2023/01/18 11:50:08;;;;;;;8.88;4.78;;;5.80;99.90;;;;;;5031706;28;20049;-79
2023/01/18 11:52:47;;;;;;;7.95;4.13;;;5.60;99.90;;;;;;5020638;28;20034;-78
2023/01/18 11:55:14;;;;;;;6.07;3.60;;;5.00;99.90;;;;;;5017517;28;20041;-82
2023/01/18 11:57:40;;;;;;;7.68;4.43;;;4.50;99.90;;;;;;5018737;28;20353;-78
2023/01/18 12:00:10;;;;;;;10.15;4.75;;;4.10;99.90;;;;;;5018166;28;20073;-77
2023/01/18 12:02:37;;;;;;;6.10;3.65;;;3.90;99.90;;;;;;5017533;28;20064;-80
2023/01/18 12:05:04;;;;;;;6.55;4.00;;;3.70;99.90;;;;;;5035927;28;20387;-81
2023/01/18 12:07:31;;;;;;;7.22;4.30;;;3.60;99.90;;;;;;5018771;28;20464;-82
2023/01/18 12:09:57;;;;;;;5.00;3.90;;;3.40;99.90;;;;;;5016984;28;20053;-79
2023/01/18 12:12:24;;;;;;;5.25;4.15;;;3.40;99.90;;;;;;5007638;28;20056;-80
2023/01/18 12:14:51;;;;;;;8.13;4.65;;;3.30;99.90;;;;;;5036100;28;20042;-82
2023/01/18 12:17:17;;;;;;;7.60;3.95;;;3.30;99.90;;;;;;5017350;28;20460;-82
2023/01/18 12:19:44;;;;;;;6.18;4.13;;;3.40;99.90;;;;;;5034293;28;20041;-80
2023/01/18 12:22:11;;;;;;;6.75;4.30;;;3.40;99.90;;;;;;5033882;28;20045;-82
2023/01/18 12:24:37;;;;;;;8.80;4.22;;;3.40;99.90;;;;;;5019749;28;20041;-82
2023/01/18 12:27:04;;;;;;;6.22;3.92;;;3.40;99.90;;;;;;5022977;28;20056;-80
2023/01/18 12:29:30;;;;;;;5.38;3.83;;;3.40;99.90;;;;;;4991550;28;20042;-80
2023/01/18 12:32:06;;;;;;;5.45;2.95;;;3.40;99.90;;;;;;5036978;28;20043;-84
2023/01/18 12:34:42;;;;;;;6.07;3.70;;;3.40;99.90;;;;;;5026439;28;20044;-79
2023/01/18 12:37:09;;;;;;;5.03;3.28;;;3.50;99.90;;;;;;4996841;28;20048;-81
2023/01/18 12:39:36;;;;;;;5.65;3.55;;;3.50;99.90;;;;;;5014643;28;20125;-83
2023/01/18 12:42:03;;;;;;;5.38;3.13;;;3.50;99.90;;;;;;5014932;28;20053;-80
2023/01/18 12:44:30;;;;;;;5.10;3.25;;;3.50;99.90;;;;;;5022717;28;20083;-81
2023/01/18 12:46:58;;;;;;;3.63;2.70;;;3.50;99.90;;;;;;5037382;28;20045;-80
2023/01/18 12:49:24;;;;;;;4.82;3.00;;;3.50;99.90;;;;;;5036298;28;20060;-80
2023/01/18 12:51:51;;;;;;;4.25;3.15;;;3.60;99.90;;;;;;5001251;28;20050;-80
2023/01/18 12:54:18;;;;;;;4.43;3.10;;;3.60;99.90;;;;;;5034805;28;20041;-79
2023/01/18 12:56:45;;;;;;;6.85;3.08;;;3.60;99.90;;;;;;5000330;28;20136;-81
2023/01/18 12:59:11;;;;;;;4.93;3.40;;;3.70;99.90;;;;;;5016940;28;20052;-81
2023/01/18 13:01:38;;;;;;;4.55;3.22;;;3.90;99.90;;;;;;5034496;28;20475;-82
2023/01/18 13:04:06;;;;;;;7.75;4.38;;;4.00;99.90;;;;;;5033857;28;20037;-82
2023/01/18 13:06:34;;;;;;;6.30;3.80;;;4.10;99.90;;;;;;5017370;28;20057;-79
2023/01/18 13:09:00;;;;;;;6.50;2.88;;;4.20;99.90;;;;;;5016782;28;20055;-78
2023/01/18 13:11:27;;;;;;;5.43;3.33;;;4.40;99.90;;;;;;5029478;28;22462;-79
2023/01/18 13:13:53;;;;;;;9.13;3.65;;;4.40;99.90;;;;;;5020370;28;20493;-81
2023/01/18 13:16:20;;;;;;;7.47;3.20;;;4.40;99.90;;;;;;5027197;28;20033;-82
2023/01/18 13:18:47;;;;;;;6.95;3.95;;;4.50;99.90;;;;;;5034228;28;20357;-80
2023/01/18 13:21:15;;;;;;;6.18;3.33;;;4.50;99.90;;;;;;5033457;28;20041;-80
2023/01/18 13:23:43;;;;;;;10.63;3.47;;;4.40;99.90;;;;;;5033656;28;20049;-80